createdAt,value
2022-10-13T00:00:53.113Z,12.60
2022-10-13T00:03:20.785Z,14.30
2022-10-13T00:05:51.287Z,12.55
2022-10-13T00:08:21.479Z,13.03
2022-10-13T00:11:00.404Z,14.18
2022-10-13T00:13:29.238Z,14.05
2022-10-13T00:15:57.053Z,10.40
2022-10-13T00:18:24.828Z,11.80
2022-10-13T00:20:53.848Z,12.73
2022-10-13T00:23:21.979Z,12.10
2022-10-13T00:25:51.374Z,11.40
2022-10-13T00:28:20.793Z,10.15
2022-10-13T00:30:48.836Z,12.63
2022-10-13T00:33:16.486Z,10.97
2022-10-13T00:35:48.332Z,12.05
2022-10-13T00:38:18.708Z,13.48
2022-10-13T00:40:47.459Z,9.43
2022-10-13T00:43:18.566Z,10.77
2022-10-13T00:45:46.692Z,12.53
2022-10-13T00:48:14.389Z,11.50
2022-10-13T00:50:43.441Z,12.00
2022-10-13T00:53:12.892Z,11.02
2022-10-13T00:55:44.184Z,12.07
2022-10-13T00:58:16.294Z,11.80
2022-10-13T01:00:46.197Z,12.23
2022-10-13T01:03:13.749Z,11.15
2022-10-13T01:05:42.637Z,10.40
2022-10-13T01:08:12.151Z,12.20
2022-10-13T01:10:49.273Z,11.27
2022-10-13T01:13:24.444Z,10.60
2022-10-13T01:15:59.524Z,9.20
2022-10-13T01:18:35.847Z,11.25
2022-10-13T01:21:18.238Z,11.00
2022-10-13T01:24:22.164Z,10.17
2022-10-13T01:27:04.723Z,9.50
2022-10-13T01:29:51.431Z,11.02
2022-10-13T01:32:30.776Z,10.32
2022-10-13T01:35:09.163Z,10.35
2022-10-13T01:37:44.540Z,10.30
2022-10-13T01:40:17.461Z,10.45
2022-10-13T01:42:49.183Z,9.93
2022-10-13T01:45:23.010Z,9.52
2022-10-13T01:47:52.339Z,10.82
2022-10-13T01:50:20.274Z,11.13
2022-10-13T01:52:48.992Z,10.45
2022-10-13T01:55:16.471Z,10.48
2022-10-13T01:57:46.148Z,10.68
2022-10-13T02:00:16.703Z,10.77
2022-10-13T02:02:53.506Z,10.73
2022-10-13T02:05:28.166Z,10.82
2022-10-13T02:08:01.011Z,10.70
2022-10-13T02:10:34.300Z,10.82
2022-10-13T02:13:04.750Z,10.00
2022-10-13T02:15:36.110Z,10.77
2022-10-13T02:18:05.648Z,10.40
2022-10-13T02:20:33.435Z,10.25
2022-10-13T02:23:05.034Z,11.20
2022-10-13T02:25:34.668Z,9.90
2022-10-13T02:28:02.928Z,10.10
2022-10-13T02:30:33.050Z,9.50
2022-10-13T02:33:01.061Z,10.30
2022-10-13T02:35:30.926Z,9.73
2022-10-13T02:37:58.310Z,9.48
2022-10-13T02:40:25.864Z,9.57
2022-10-13T02:42:53.626Z,9.75
2022-10-13T02:45:21.581Z,9.88
2022-10-13T02:47:49.045Z,10.07
2022-10-13T02:50:16.882Z,9.50
2022-10-13T02:52:45.643Z,10.93
2022-10-13T02:55:13.060Z,10.98
2022-10-13T02:57:40.485Z,11.90
2022-10-13T03:00:09.179Z,11.32
2022-10-13T03:02:36.624Z,12.18
2022-10-13T03:05:04.322Z,11.60
2022-10-13T03:07:31.735Z,10.95
2022-10-13T03:10:00.503Z,11.65
2022-10-13T03:12:27.972Z,11.57
2022-10-13T03:14:55.388Z,11.40
2022-10-13T03:17:22.818Z,10.37
2022-10-13T03:19:50.223Z,9.98
2022-10-13T03:22:18.355Z,8.68
2022-10-13T03:24:46.078Z,9.73
2022-10-13T03:27:15.636Z,9.98
2022-10-13T03:29:43.041Z,9.80
2022-10-13T03:32:10.736Z,9.98
2022-10-13T03:34:38.197Z,10.18
2022-10-13T03:37:06.205Z,10.25
2022-10-13T03:39:33.768Z,10.52
2022-10-13T03:42:01.330Z,10.10
2022-10-13T03:44:30.172Z,10.75
2022-10-13T03:46:57.736Z,10.50
2022-10-13T03:49:25.120Z,11.15
2022-10-13T03:51:52.516Z,10.23
2022-10-13T03:54:19.922Z,10.50
2022-10-13T03:56:47.444Z,10.20
2022-10-13T03:59:16.789Z,11.23
2022-10-13T04:01:45.524Z,10.13
2022-10-13T04:04:13.202Z,10.50
2022-10-13T04:06:40.672Z,9.67
2022-10-13T04:09:08.092Z,10.52
2022-10-13T04:11:35.511Z,10.00
2022-10-13T04:14:03.016Z,11.13
2022-10-13T04:16:32.148Z,10.57
2022-10-13T04:19:02.539Z,9.93
2022-10-13T04:21:31.664Z,10.38
2022-10-13T04:24:00.350Z,10.52
2022-10-13T04:26:31.115Z,9.93
2022-10-13T04:28:59.259Z,9.85
2022-10-13T04:31:28.924Z,9.87
2022-10-13T04:33:56.409Z,10.75
2022-10-13T04:36:25.851Z,9.52
2022-10-13T04:38:54.669Z,10.40
2022-10-13T04:41:22.867Z,11.27
2022-10-13T04:43:51.469Z,10.33
2022-10-13T04:46:21.575Z,9.95
2022-10-13T04:48:49.051Z,9.88
2022-10-13T04:51:18.369Z,9.00
2022-10-13T04:53:47.654Z,9.57
2022-10-13T04:56:17.430Z,11.33
2022-10-13T04:58:46.715Z,10.45
2022-10-13T05:01:21.188Z,10.85
2022-10-13T05:03:51.838Z,10.10
2022-10-13T05:06:22.262Z,13.10
2022-10-13T05:08:51.338Z,12.60
2022-10-13T05:11:20.480Z,12.25
2022-10-13T05:13:48.321Z,16.70
2022-10-13T05:16:17.199Z,14.65
2022-10-13T05:18:44.972Z,12.57
2022-10-13T05:21:14.427Z,14.23
2022-10-13T05:23:42.596Z,12.10
2022-10-13T05:26:13.338Z,10.32
2022-10-13T05:28:41.347Z,10.73
2022-10-13T05:31:13.181Z,10.68
2022-10-13T05:33:41.227Z,11.20
2022-10-13T05:36:11.743Z,10.90
2022-10-13T05:38:39.591Z,10.88
2022-10-13T05:41:10.223Z,11.05
2022-10-13T05:43:40.199Z,9.90
2022-10-13T05:46:07.964Z,10.30
2022-10-13T05:48:35.955Z,10.93
2022-10-13T05:51:07.651Z,10.88
2022-10-13T05:53:38.615Z,11.52
2022-10-13T05:56:12.364Z,12.30
2022-10-13T05:58:44.444Z,11.83
2022-10-13T06:01:16.006Z,10.85
2022-10-13T06:03:44.900Z,11.95
2022-10-13T06:06:12.397Z,12.60
2022-10-13T06:08:39.810Z,13.10
2022-10-13T06:11:08.159Z,8.40
2022-10-13T06:13:35.818Z,9.18
2022-10-13T06:16:05.028Z,11.18
2022-10-13T06:18:32.478Z,10.80
2022-10-13T06:20:59.910Z,10.75
2022-10-13T06:23:27.340Z,9.50
2022-10-13T06:25:54.860Z,10.80
2022-10-13T06:28:22.681Z,8.90
2022-10-13T06:30:56.360Z,9.30
2022-10-13T06:33:25.937Z,8.82
2022-10-13T06:35:53.637Z,9.47
2022-10-13T06:38:21.096Z,9.73
2022-10-13T06:40:48.738Z,9.50
2022-10-13T06:43:16.145Z,10.30
2022-10-13T06:45:43.543Z,8.90
2022-10-13T06:48:10.939Z,9.20
2022-10-13T06:50:42.877Z,9.07
2022-10-13T06:53:10.545Z,10.52
2022-10-13T06:55:37.957Z,9.20
2022-10-13T06:58:05.377Z,10.82
2022-10-13T07:00:32.825Z,8.97
2022-10-13T07:03:00.291Z,10.43
2022-10-13T07:05:27.683Z,10.70
2022-10-13T07:07:56.618Z,10.77
2022-10-13T07:10:24.042Z,10.82
2022-10-13T07:12:51.538Z,11.03
2022-10-13T07:15:18.951Z,10.40
2022-10-13T07:17:46.342Z,10.55
2022-10-13T07:20:13.744Z,11.48
2022-10-13T07:22:41.151Z,11.60
2022-10-13T07:25:10.856Z,11.40
2022-10-13T07:27:40.671Z,11.38
2022-10-13T07:30:09.800Z,10.52
2022-10-13T07:32:37.310Z,10.30
2022-10-13T07:35:05.110Z,10.88
2022-10-13T07:37:32.556Z,10.93
2022-10-13T07:40:00.302Z,12.55
2022-10-13T07:42:29.039Z,11.68
2022-10-13T07:44:56.446Z,11.43
2022-10-13T07:47:24.246Z,11.48
2022-10-13T07:49:51.682Z,11.43
2022-10-13T07:52:19.395Z,12.30
2022-10-13T07:54:46.919Z,10.85
2022-10-13T07:57:15.126Z,11.45
2022-10-13T07:59:43.891Z,10.98
2022-10-13T08:02:11.358Z,11.27
2022-10-13T08:04:39.004Z,11.32
2022-10-13T08:07:07.156Z,11.32
2022-10-13T08:09:34.940Z,11.82
2022-10-13T08:12:02.394Z,11.30
2022-10-13T08:14:30.221Z,10.90
2022-10-13T08:16:59.362Z,11.80
2022-10-13T08:19:28.220Z,11.15
2022-10-13T08:21:59.286Z,10.50
2022-10-13T08:24:27.820Z,10.85
2022-10-13T08:26:56.403Z,9.93
2022-10-13T08:29:24.507Z,10.82
2022-10-13T08:31:53.093Z,11.20
2022-10-13T08:34:22.543Z,11.05
2022-10-13T08:36:52.720Z,11.30
2022-10-13T08:39:20.172Z,11.07
2022-10-13T08:41:47.876Z,11.10
2022-10-13T08:47:16.561Z,9.98
2022-10-13T08:49:46.159Z,10.45
2022-10-13T08:52:19.707Z,9.67
2022-10-13T08:54:47.988Z,11.43
2022-10-13T08:57:15.681Z,10.55
2022-10-13T08:59:43.145Z,11.23
2022-10-13T09:02:14.611Z,10.25
2022-10-13T09:04:49.202Z,10.87
2022-10-13T09:07:20.417Z,11.23
2022-10-13T09:09:51.815Z,10.13
2022-10-13T09:12:22.120Z,11.25
2022-10-13T09:14:59.587Z,10.68
2022-10-13T09:17:28.068Z,11.47
2022-10-13T09:20:02.690Z,10.90
2022-10-13T09:22:32.373Z,11.05
2022-10-13T09:25:10.775Z,10.40
2022-10-13T09:27:45.816Z,10.40
2022-10-13T09:30:28.680Z,10.20
2022-10-13T09:33:07.496Z,10.32
2022-10-13T09:35:37.009Z,9.75
2022-10-13T09:38:05.114Z,10.60
2022-10-13T09:40:33.437Z,9.68
2022-10-13T09:43:02.711Z,10.37
2022-10-13T09:45:31.006Z,9.00
2022-10-13T09:48:01.393Z,10.13
2022-10-13T09:50:30.993Z,10.93
2022-10-13T09:53:18.432Z,11.25
2022-10-13T09:55:48.451Z,9.67
2022-10-13T09:58:20.710Z,10.85
2022-10-13T10:00:52.094Z,10.38
2022-10-13T10:03:23.722Z,10.25
2022-10-13T10:05:55.499Z,10.68
2022-10-13T10:08:33.694Z,9.67
2022-10-13T10:11:12.876Z,10.63
2022-10-13T10:13:40.296Z,10.32
2022-10-13T10:16:13.263Z,9.60
2022-10-13T10:18:46.195Z,10.82
2022-10-13T10:21:24.735Z,10.27
2022-10-13T10:24:00.775Z,10.18
2022-10-13T10:26:44.694Z,9.55
2022-10-13T10:29:20.540Z,10.73
2022-10-13T10:32:00.193Z,10.20
2022-10-13T10:34:42.394Z,9.03
2022-10-13T10:37:21.454Z,9.77
2022-10-13T10:40:00.690Z,10.35
2022-10-13T10:42:53.011Z,9.15
2022-10-13T10:45:24.526Z,9.27
2022-10-13T10:47:56.969Z,7.70
2022-10-13T10:50:25.155Z,8.25
2022-10-13T10:53:00.898Z,8.73
2022-10-13T10:55:35.588Z,9.20
2022-10-13T10:58:19.459Z,9.73
2022-10-13T11:00:56.492Z,9.20
2022-10-13T11:03:38.364Z,9.85
2022-10-13T11:06:22.213Z,8.90
2022-10-13T11:08:50.407Z,8.95
2022-10-13T11:11:42.086Z,8.52
2022-10-13T11:14:31.824Z,7.93
2022-10-13T11:17:18.851Z,8.27
2022-10-13T11:19:48.583Z,8.27
2022-10-13T11:22:19.622Z,7.53
2022-10-13T11:24:50.315Z,8.75
2022-10-13T11:27:26.788Z,7.73
2022-10-13T11:29:57.732Z,7.78
2022-10-13T11:32:55.522Z,7.18
2022-10-13T11:35:29.580Z,8.13
2022-10-13T11:38:21.752Z,6.90
2022-10-13T11:41:08.419Z,7.20
2022-10-13T11:43:48.115Z,8.00
2022-10-13T11:46:27.510Z,7.32
2022-10-13T11:49:15.692Z,6.07
2022-10-13T11:52:02.020Z,6.88
2022-10-13T11:54:35.356Z,5.87
2022-10-13T11:57:04.542Z,6.82
2022-10-13T11:59:35.233Z,6.10
2022-10-13T12:02:12.199Z,5.55
2022-10-13T12:04:46.507Z,5.10
2022-10-13T12:07:16.558Z,4.90
2022-10-13T12:09:51.197Z,4.57
2022-10-13T12:12:21.341Z,4.78
2022-10-13T12:14:52.408Z,5.35
2022-10-13T12:17:23.979Z,5.18
2022-10-13T12:19:51.724Z,5.17
2022-10-13T12:22:19.154Z,5.15
2022-10-13T12:24:58.877Z,4.78
2022-10-13T12:27:27.322Z,4.45
2022-10-13T12:29:56.193Z,4.57
2022-10-13T12:32:26.104Z,4.97
2022-10-13T12:34:53.768Z,5.25
2022-10-13T12:37:30.767Z,4.55
2022-10-13T12:39:59.557Z,5.00
2022-10-13T12:42:30.524Z,4.65
2022-10-13T12:45:01.215Z,4.73
2022-10-13T12:47:40.875Z,4.65
2022-10-13T12:50:34.116Z,5.35
2022-10-13T12:53:17.779Z,4.30
2022-10-13T12:56:06.412Z,4.63
2022-10-13T12:58:35.692Z,5.20
2022-10-13T13:01:26.296Z,4.85
2022-10-13T13:03:57.009Z,5.53
2022-10-13T13:06:30.932Z,4.40
2022-10-13T13:09:29.490Z,5.75
2022-10-13T13:12:16.587Z,5.23
2022-10-13T13:14:47.303Z,5.80
2022-10-13T13:17:56.595Z,5.53
2022-10-13T13:20:21.680Z,5.53
2022-10-13T13:22:50.600Z,5.63
2022-10-13T13:25:17.990Z,5.43
2022-10-13T13:27:45.394Z,5.60
2022-10-13T13:30:14.885Z,5.15
2022-10-13T13:32:43.698Z,4.43
2022-10-13T13:35:11.736Z,4.93
2022-10-13T13:37:42.505Z,4.23
2022-10-13T13:40:17.314Z,4.25
2022-10-13T13:42:45.015Z,4.70
2022-10-13T13:45:13.970Z,5.50
2022-10-13T13:47:43.376Z,4.22
2022-10-13T13:50:16.953Z,4.00
2022-10-13T13:52:44.388Z,4.82
2022-10-13T13:55:11.791Z,4.57
2022-10-13T13:57:39.196Z,4.43
2022-10-13T14:00:07.911Z,4.68
2022-10-13T14:02:35.458Z,4.20
2022-10-13T14:05:04.905Z,4.68
2022-10-13T14:07:32.668Z,5.05
2022-10-13T14:10:02.024Z,4.80
2022-10-13T14:12:30.324Z,4.80
2022-10-13T14:14:58.379Z,4.93
2022-10-13T14:17:26.244Z,5.05
2022-10-13T14:19:54.679Z,4.90
2022-10-13T14:22:23.733Z,4.70
2022-10-13T14:24:51.338Z,5.00
2022-10-13T14:27:18.770Z,4.53
2022-10-13T14:29:46.185Z,4.85
2022-10-13T14:32:13.650Z,5.13
2022-10-13T14:34:41.062Z,5.13
2022-10-13T14:37:08.465Z,5.00
2022-10-13T14:39:37.298Z,5.30
2022-10-13T14:42:04.776Z,5.53
2022-10-13T14:44:32.208Z,6.00
2022-10-13T14:46:59.624Z,5.85
2022-10-13T14:49:27.119Z,6.25
2022-10-13T14:51:54.589Z,7.40
2022-10-13T14:54:22.028Z,6.28
2022-10-13T14:56:50.795Z,6.40
2022-10-13T14:59:18.439Z,6.15
2022-10-13T15:01:46.395Z,6.18
2022-10-13T15:04:13.844Z,7.63
2022-10-13T15:06:41.355Z,7.10
2022-10-13T15:09:10.159Z,7.30
2022-10-13T15:11:37.815Z,6.68
2022-10-13T15:14:07.365Z,6.32
2022-10-13T15:16:35.003Z,6.30
2022-10-13T15:19:02.440Z,6.72
2022-10-13T15:21:29.907Z,6.18
2022-10-13T15:23:57.745Z,6.53
2022-10-13T15:26:25.236Z,7.22
2022-10-13T15:28:54.252Z,7.00
2022-10-13T15:31:24.339Z,7.53
2022-10-13T15:33:54.085Z,8.43
2022-10-13T15:36:22.697Z,7.45
2022-10-13T15:38:50.438Z,8.05
2022-10-13T15:41:18.378Z,6.90
2022-10-13T15:43:45.766Z,7.68
2022-10-13T15:46:20.981Z,7.30
2022-10-13T15:48:50.614Z,7.30
2022-10-13T15:51:20.304Z,7.90
2022-10-13T15:53:48.179Z,8.03
2022-10-13T15:56:15.628Z,8.98
2022-10-13T15:58:43.614Z,6.50
2022-10-13T16:01:12.755Z,7.97
2022-10-13T16:03:40.860Z,7.38
2022-10-13T16:06:12.377Z,8.07
2022-10-13T16:08:40.655Z,7.32
2022-10-13T16:11:09.491Z,7.95
2022-10-13T16:13:37.065Z,7.30
2022-10-13T16:16:04.552Z,7.63
2022-10-13T16:18:33.139Z,8.27
2022-10-13T16:21:01.148Z,8.25
2022-10-13T16:23:29.875Z,8.45
2022-10-13T16:25:57.268Z,9.20
2022-10-13T16:28:24.747Z,6.90
2022-10-13T16:30:52.170Z,7.57
2022-10-13T16:33:19.586Z,5.80
2022-10-13T16:35:47.001Z,3.53
2022-10-13T16:38:14.427Z,2.80
2022-10-13T16:40:43.192Z,2.85
2022-10-13T16:43:10.585Z,2.73
2022-10-13T16:45:58.521Z,2.05
2022-10-13T16:48:25.468Z,1.30
2022-10-13T16:50:53.011Z,0.73
2022-10-13T16:53:20.723Z,1.02
2022-10-13T16:55:49.731Z,0.70
2022-10-13T16:58:17.436Z,1.00
2022-10-13T17:00:44.976Z,0.70
2022-10-13T17:03:12.411Z,0.98
2022-10-13T17:05:39.823Z,0.93
2022-10-13T17:08:08.222Z,0.80
2022-10-13T17:10:35.988Z,1.00
2022-10-13T17:13:04.755Z,0.70
2022-10-13T17:15:32.174Z,1.20
2022-10-13T17:17:59.579Z,1.88
2022-10-13T17:20:27.001Z,1.40
2022-10-13T17:22:54.559Z,1.88
2022-10-13T17:25:21.944Z,2.20
2022-10-13T17:27:49.421Z,2.00
2022-10-13T17:30:18.198Z,2.08
2022-10-13T17:32:45.639Z,2.80
2022-10-13T17:35:17.778Z,2.83
2022-10-13T17:37:45.286Z,3.03
2022-10-13T17:40:12.989Z,1.70
2022-10-13T17:42:40.393Z,2.30
2022-10-13T17:45:09.058Z,2.27
2022-10-13T17:47:37.824Z,2.05
2022-10-13T17:50:06.070Z,2.10
2022-10-13T17:52:33.552Z,2.40
2022-10-13T17:55:00.927Z,2.33
2022-10-13T17:57:30.468Z,2.10
2022-10-13T17:59:57.872Z,2.40
2022-10-13T18:02:25.341Z,2.60
2022-10-13T18:04:54.077Z,2.50
2022-10-13T18:07:21.836Z,2.22
2022-10-13T18:09:51.704Z,2.60
2022-10-13T18:12:19.216Z,3.28
2022-10-13T18:14:46.629Z,3.08
2022-10-13T18:17:14.037Z,4.50
2022-10-13T18:19:42.154Z,4.10
2022-10-13T18:22:10.993Z,3.80
2022-10-13T18:24:38.483Z,4.35
2022-10-13T18:27:05.882Z,3.72
2022-10-13T18:29:33.267Z,3.88
2022-10-13T18:32:00.663Z,4.20
2022-10-13T18:34:28.100Z,3.83
2022-10-13T18:36:55.941Z,4.43
2022-10-13T18:39:27.149Z,4.22
2022-10-13T18:41:55.841Z,4.55
2022-10-13T18:44:24.917Z,4.18
2022-10-13T18:46:56.263Z,4.20
2022-10-13T18:49:31.609Z,4.72
2022-10-13T18:51:59.475Z,4.70
2022-10-13T18:54:29.459Z,4.88
2022-10-13T18:56:57.258Z,5.15
2022-10-13T18:59:26.394Z,5.27
2022-10-13T19:01:53.778Z,5.47
2022-10-13T19:04:22.166Z,5.22
2022-10-13T19:06:49.741Z,4.63
2022-10-13T19:09:18.014Z,5.45
2022-10-13T19:11:46.762Z,4.27
2022-10-13T19:14:14.689Z,4.10
2022-10-13T19:16:43.894Z,3.85
2022-10-13T19:19:11.475Z,4.65
2022-10-13T19:21:39.768Z,4.50
2022-10-13T19:24:08.127Z,4.90
2022-10-13T19:26:37.731Z,4.35
2022-10-13T19:29:08.726Z,5.10
2022-10-13T19:31:37.376Z,6.20
2022-10-13T19:34:05.462Z,5.03
2022-10-13T19:36:35.299Z,4.97
2022-10-13T19:39:04.662Z,4.85
2022-10-13T19:41:33.726Z,4.72
2022-10-13T19:44:01.691Z,4.50
2022-10-13T19:46:30.496Z,4.72
2022-10-13T19:48:57.936Z,5.40
2022-10-13T19:51:25.371Z,5.10
2022-10-13T19:53:52.868Z,5.50
2022-10-13T19:56:25.739Z,5.93
2022-10-13T19:58:54.357Z,5.28
2022-10-13T20:01:22.241Z,5.87
2022-10-13T20:03:51.563Z,6.47
2022-10-13T20:06:20.458Z,5.82
2022-10-13T20:08:48.313Z,5.63
2022-10-13T20:11:23.078Z,6.07
2022-10-13T20:13:51.514Z,6.60
2022-10-13T20:16:21.458Z,5.85
2022-10-13T20:18:54.225Z,5.50
2022-10-13T20:21:22.241Z,5.40
2022-10-13T20:23:50.586Z,5.57
2022-10-13T20:26:18.484Z,6.07
2022-10-13T20:28:47.534Z,6.45
2022-10-13T20:31:17.146Z,5.20
2022-10-13T20:33:44.639Z,5.18
2022-10-13T20:36:15.528Z,4.55
2022-10-13T20:38:42.997Z,5.33
2022-10-13T20:41:16.774Z,6.32
2022-10-13T20:43:44.272Z,5.88
2022-10-13T20:46:12.242Z,5.90
2022-10-13T20:49:05.533Z,5.65
2022-10-13T20:51:30.365Z,5.13
2022-10-13T20:53:58.341Z,5.97
2022-10-13T20:56:27.643Z,6.25
2022-10-13T20:58:55.287Z,5.78
2022-10-13T21:01:23.723Z,5.97
2022-10-13T21:03:54.874Z,6.73
2022-10-13T21:06:23.834Z,5.85
2022-10-13T21:08:53.096Z,6.57
2022-10-13T21:11:22.188Z,6.85
2022-10-13T21:13:50.470Z,5.88
2022-10-13T21:16:19.653Z,5.53
2022-10-13T21:18:48.890Z,5.30
2022-10-13T21:21:17.993Z,4.50
2022-10-13T21:23:45.948Z,5.07
2022-10-13T21:26:20.394Z,5.25
2022-10-13T21:28:49.141Z,5.30
2022-10-13T21:31:17.333Z,4.78
2022-10-13T21:33:45.458Z,5.07
2022-10-13T21:36:15.023Z,4.20
2022-10-13T21:38:43.337Z,4.03
2022-10-13T21:41:13.016Z,3.53
2022-10-13T21:43:42.136Z,4.55
2022-10-13T21:46:10.631Z,4.63
2022-10-13T21:48:38.171Z,4.88
2022-10-13T21:51:13.663Z,5.43
2022-10-13T21:53:41.388Z,5.17
2022-10-13T21:56:11.427Z,5.60
2022-10-13T21:58:39.205Z,5.05
2022-10-13T22:01:08.129Z,5.13
2022-10-13T22:03:36.147Z,4.78
2022-10-13T22:06:08.012Z,4.73
2022-10-13T22:08:38.913Z,4.30
2022-10-13T22:11:08.005Z,4.82
2022-10-13T22:13:36.726Z,4.50
2022-10-13T22:16:05.316Z,3.97
2022-10-13T22:18:34.109Z,4.27
2022-10-13T22:21:02.912Z,3.63
2022-10-13T22:23:30.530Z,3.72
2022-10-13T22:25:58.201Z,3.70
2022-10-13T22:28:26.184Z,3.45
2022-10-13T22:30:54.001Z,3.30
2022-10-13T22:33:21.531Z,2.80
2022-10-13T22:35:50.286Z,2.95
2022-10-13T22:38:17.729Z,2.50
2022-10-13T22:40:45.146Z,2.95
2022-10-13T22:43:12.807Z,2.50
2022-10-13T22:45:40.216Z,2.53
2022-10-13T22:48:07.628Z,2.47
2022-10-13T22:50:35.447Z,2.22
2022-10-13T22:53:04.191Z,2.08
2022-10-13T22:55:31.593Z,2.00
2022-10-13T22:57:59.030Z,1.70
2022-10-13T23:00:26.469Z,2.17
2022-10-13T23:02:53.899Z,2.15
2022-10-13T23:05:21.294Z,2.10
2022-10-13T23:07:48.713Z,2.00
2022-10-13T23:10:17.854Z,1.95
2022-10-13T23:12:45.301Z,1.77
2022-10-13T23:15:12.731Z,1.65
2022-10-13T23:17:40.127Z,2.10
2022-10-13T23:20:08.876Z,2.17
2022-10-13T23:22:36.272Z,1.77
2022-10-13T23:25:03.741Z,1.95
2022-10-13T23:27:32.533Z,1.77
2022-10-13T23:29:59.941Z,2.20
2022-10-13T23:32:27.444Z,1.70
2022-10-13T23:34:54.884Z,2.00
2022-10-13T23:37:22.734Z,2.15
2022-10-13T23:39:50.645Z,1.80
2022-10-13T23:42:18.049Z,2.10
2022-10-13T23:44:46.847Z,2.37
2022-10-13T23:47:14.266Z,1.98
2022-10-13T23:49:41.680Z,2.00
2022-10-13T23:52:11.058Z,1.70
2022-10-13T23:54:38.703Z,1.83
2022-10-13T23:57:06.112Z,2.07
2022-10-13T23:59:33.532Z,2.25
